KTYR/TYR METAR and TAF weather

Enter ICAO airport designator
Station Type Date Time Source
KTYR METAR 2019/12/06 01:53 UTC NOAA

KTYR 060153Z 17009KT 10SM SCT110 18/13 A2993 RMK AO2 SLP133 T01830128


Station Type Date Time Source
KTYR Decoded METAR 2019/12/06 01:53 UTC NOAA

TYLER POUNDS FIELDS, TX, United States (KTYR) 32-21N 095-24W 165M
Dec 05, 2019 - 08:53 PM EST / 2019.12.06 0153 UTC
Wind: from the S (170 degrees) at 10 MPH (9 KT):0
Visibility: 10 mile(s):0
Sky conditions: partly cloudy
Temperature: 64.9 F (18.3 C)
Dew Point: 55.0 F (12.8 C)
Relative Humidity: 70%
Pressure (altimeter): 29.93 in. Hg (1013 hPa)
ob: KTYR 060153Z 17009KT 10SM SCT110 18/13 A2993 RMK AO2 SLP133 T01830128
cycle: 2

Station Type Date Time Source
KTYR TAF 2019/12/05 18:42 UTC NOAA

TAF KTYR 051738Z 0518/0618 18014G22KT P6SM SCT150 BKN250
FM052100 18014G22KT P6SM SCT040 BKN120
FM060300 18014G22KT P6SM BKN030 OVC080
FM060900 21013G18KT P6SM BKN015 BKN080
FM061500 32013G18KT P6SM BKN015

Example: see airport list